Time;durP1;ratioP1;P1;durP2;ratioP2;P2;SDS_P1;SDS_P2;PMS_P1;PMS_P2;Temp;Humidity;BMP_temperature;BMP_pressure;BME280_temperature;BME280_humidity;BME280_pressure;Samples;Min_cycle;Max_cycle;Signal;HPM_P1;HPM_P2
2023/10/03 00:00:31;;;;;;;34.90;14.68;;;18.50;99.90;;;;;;5020311;28;20465;-83
2023/10/03 00:02:58;;;;;;;32.15;15.07;;;18.50;99.90;;;;;;5019911;28;20022;-81
2023/10/03 00:05:29;;;;;;;34.83;15.02;;;18.50;99.90;;;;;;5037342;28;20025;-81
2023/10/03 00:07:56;;;;;;;36.60;17.70;;;18.50;99.90;;;;;;5036373;28;20891;-80
2023/10/03 00:10:23;;;;;;;32.75;14.88;;;18.50;99.90;;;;;;5018592;28;20469;-79
2023/10/03 00:12:51;;;;;;;37.88;16.23;;;18.50;99.90;;;;;;5019416;28;20041;-82
2023/10/03 00:15:21;;;;;;;34.80;15.07;;;18.50;99.90;;;;;;5018471;28;20022;-81
2023/10/03 00:17:47;;;;;;;31.83;15.75;;;18.40;99.90;;;;;;5037293;28;20022;-83
2023/10/03 00:20:18;;;;;;;30.42;14.57;;;18.40;99.90;;;;;;5035305;28;20029;-82
2023/10/03 00:22:44;;;;;;;32.05;14.48;;;18.40;99.90;;;;;;5018667;28;20036;-81
2023/10/03 00:25:23;;;;;;;33.28;13.95;;;18.40;99.90;;;;;;5015912;28;20083;-80
2023/10/03 00:27:53;;;;;;;33.17;13.82;;;18.40;99.90;;;;;;5036603;28;20060;-79
2023/10/03 00:30:26;;;;;;;33.17;14.20;;;18.40;99.90;;;;;;5034454;28;20036;-80
2023/10/03 00:32:53;;;;;;;34.30;14.43;;;18.40;99.90;;;;;;5033564;28;20370;-81
2023/10/03 00:35:22;;;;;;;31.67;14.95;;;18.40;99.90;;;;;;5018258;28;20045;-82
2023/10/03 00:37:51;;;;;;;29.40;14.18;;;18.40;99.90;;;;;;5032809;28;20083;-82
2023/10/03 00:42:50;;;;;;;31.92;13.73;;;18.50;99.90;;;;;;5035196;28;20086;-82
2023/10/03 00:45:21;;;;;;;31.13;13.85;;;18.50;99.90;;;;;;5030570;28;20037;-81
2023/10/03 00:47:52;;;;;;;36.55;14.63;;;18.50;99.90;;;;;;5019450;28;20021;-81
2023/10/03 00:50:20;;;;;;;33.88;15.23;;;18.50;99.90;;;;;;5033904;28;20109;-81
2023/10/03 00:52:53;;;;;;;37.88;15.02;;;18.50;99.90;;;;;;5015557;28;20156;-83
2023/10/03 00:55:19;;;;;;;30.27;13.93;;;18.50;99.90;;;;;;5015393;28;21624;-81
2023/10/03 00:57:45;;;;;;;32.65;13.32;;;18.50;99.90;;;;;;5016801;28;20029;-81
2023/10/03 01:00:16;;;;;;;30.05;13.85;;;18.50;99.90;;;;;;5017264;28;20167;-82
2023/10/03 01:02:52;;;;;;;31.70;13.95;;;18.50;99.90;;;;;;5030961;28;20586;-81
2023/10/03 01:05:20;;;;;;;33.80;14.02;;;18.50;99.90;;;;;;5017429;28;20808;-82
2023/10/03 01:07:49;;;;;;;31.77;13.32;;;18.60;99.90;;;;;;5034606;28;20123;-83
2023/10/03 01:10:19;;;;;;;33.60;14.90;;;18.60;99.90;;;;;;5033894;28;20029;-81
2023/10/03 01:12:46;;;;;;;34.78;15.55;;;18.60;99.90;;;;;;5035037;28;20112;-82
2023/10/03 01:15:16;;;;;;;31.40;13.50;;;18.60;99.90;;;;;;5035331;28;20025;-82
2023/10/03 01:17:48;;;;;;;30.73;14.73;;;18.60;99.90;;;;;;5015493;28;20563;-81
2023/10/03 01:20:24;;;;;;;;;;;18.50;99.90;;;;;;5034127;28;20120;-83
2023/10/03 01:22:54;;;;;;;34.75;15.23;;;18.50;99.90;;;;;;5017925;28;19973;-82
2023/10/03 01:25:27;;;;;;;30.20;13.90;;;18.50;99.90;;;;;;5016810;28;21565;-83
2023/10/03 01:27:56;;;;;;;28.48;14.10;;;18.50;99.90;;;;;;5017119;28;20025;-83
2023/10/03 01:30:22;;;;;;;31.35;14.95;;;18.50;99.90;;;;;;5036256;28;20022;-81
2023/10/03 01:32:56;;;;;;;34.45;14.15;;;18.50;99.90;;;;;;5016998;28;20029;-83
2023/10/03 01:35:22;;;;;;;32.28;14.18;;;18.50;99.90;;;;;;5016781;28;20163;-80
2023/10/03 01:37:54;;;;;;;27.55;12.93;;;18.50;99.90;;;;;;5017794;28;20120;-81
2023/10/03 01:40:20;;;;;;;32.35;14.30;;;18.50;99.90;;;;;;5037337;28;20021;-83
2023/10/03 01:42:47;;;;;;;31.10;13.77;;;18.50;99.90;;;;;;5033952;28;20365;-83
2023/10/03 01:45:17;;;;;;;29.80;13.02;;;18.60;99.90;;;;;;5034393;28;20068;-82
2023/10/03 01:47:45;;;;;;;32.95;14.50;;;18.60;99.90;;;;;;5033641;28;20068;-82
2023/10/03 01:50:17;;;;;;;32.13;14.75;;;18.60;99.90;;;;;;5015131;28;20476;-83
2023/10/03 01:52:43;;;;;;;28.27;13.23;;;18.60;99.90;;;;;;5031951;28;20040;-84
2023/10/03 01:55:14;;;;;;;31.70;13.77;;;18.60;99.90;;;;;;5014611;28;20073;-83
2023/10/03 01:57:43;;;;;;;34.35;14.05;;;18.60;99.90;;;;;;5017996;28;20030;-83
2023/10/03 02:00:22;;;;;;;29.20;13.52;;;18.60;99.90;;;;;;5014665;28;20048;-82
2023/10/03 02:02:48;;;;;;;32.65;14.32;;;18.60;99.90;;;;;;5018409;28;20041;-82
2023/10/03 02:05:16;;;;;;;34.40;14.23;;;18.60;99.90;;;;;;5017482;28;20036;-81
2023/10/03 02:07:43;;;;;;;28.02;13.30;;;18.60;99.90;;;;;;5017446;28;20025;-83
2023/10/03 02:10:12;;;;;;;33.42;14.38;;;18.60;99.90;;;;;;5034959;28;20036;-82
2023/10/03 02:12:48;;;;;;;31.80;14.07;;;18.60;99.90;;;;;;5035660;28;20014;-83
2023/10/03 02:15:22;;;;;;;29.95;13.35;;;18.60;99.90;;;;;;5033063;28;20108;-83
2023/10/03 02:17:54;;;;;;;31.48;13.73;;;18.60;99.90;;;;;;5017738;28;20028;-80
2023/10/03 02:20:25;;;;;;;;;;;18.50;99.90;;;;;;5016843;28;20068;-81
2023/10/03 02:22:55;;;;;;;29.98;13.88;;;18.50;99.90;;;;;;5015272;28;20369;-81
2023/10/03 02:25:37;;;;;;;26.70;12.63;;;18.50;99.90;;;;;;5034396;28;20076;-81
2023/10/03 02:28:05;;;;;;;30.77;13.85;;;18.50;99.90;;;;;;5017205;28;20029;-81
2023/10/03 02:30:31;;;;;;;27.23;12.45;;;18.50;99.90;;;;;;5015977;28;20033;-82
2023/10/03 02:33:04;;;;;;;42.60;15.43;;;18.50;99.90;;;;;;5029489;28;20029;-82
2023/10/03 02:35:30;;;;;;;29.75;15.02;;;18.50;99.90;;;;;;5017110;28;20079;-81
2023/10/03 02:37:56;;;;;;;25.95;11.95;;;18.50;99.90;;;;;;5017034;28;20512;-82
2023/10/03 02:40:26;;;;;;;29.48;13.60;;;18.40;99.90;;;;;;5032729;28;20063;-83
2023/10/03 02:42:55;;;;;;;33.15;14.15;;;18.50;99.90;;;;;;5014880;28;20181;-84
2023/10/03 02:45:25;;;;;;;29.10;13.35;;;18.50;99.90;;;;;;5030301;28;20077;-83
2023/10/03 02:47:58;;;;;;;26.50;12.43;;;18.50;99.90;;;;;;5026615;28;20091;-83
2023/10/03 02:50:26;;;;;;;33.78;15.05;;;18.50;99.90;;;;;;5030540;28;20453;-82
2023/10/03 02:52:55;;;;;;;32.70;14.10;;;18.50;99.90;;;;;;5030672;28;20026;-83
2023/10/03 02:55:33;;;;;;;28.67;14.07;;;18.50;99.90;;;;;;5013356;28;20032;-83
2023/10/03 02:58:00;;;;;;;29.88;15.02;;;18.40;99.90;;;;;;5013020;28;20034;-83
2023/10/03 03:00:29;;;;;;;31.88;14.30;;;18.40;99.90;;;;;;5013172;28;20453;-83
2023/10/03 03:02:56;;;;;;;33.33;14.05;;;18.40;99.90;;;;;;5013316;28;20486;-81
2023/10/03 03:05:35;;;;;;;27.88;13.00;;;18.40;99.90;;;;;;5013118;28;20481;-81
2023/10/03 03:08:04;;;;;;;29.40;14.05;;;18.40;99.90;;;;;;5011018;28;20029;-82
2023/10/03 03:10:32;;;;;;;30.75;13.10;;;18.40;99.90;;;;;;5034530;28;20021;-82
2023/10/03 03:12:58;;;;;;;31.30;14.20;;;18.40;99.90;;;;;;5019043;28;20033;-81
2023/10/03 03:15:24;;;;;;;31.05;13.35;;;18.40;99.90;;;;;;5019918;28;20032;-82
2023/10/03 03:17:53;;;;;;;25.98;12.52;;;18.40;99.90;;;;;;5020111;28;20036;-80
2023/10/03 03:20:27;;;;;;;31.10;14.10;;;18.40;99.90;;;;;;5035697;28;20037;-83
2023/10/03 03:22:53;;;;;;;32.22;13.90;;;18.40;99.90;;;;;;5021121;28;20063;-82
2023/10/03 03:25:25;;;;;;;28.42;12.68;;;18.40;99.90;;;;;;5019811;28;20276;-83
2023/10/03 03:27:56;;;;;;;29.17;12.90;;;18.40;99.90;;;;;;5018446;28;20079;-82
2023/10/03 03:32:57;;;;;;;30.30;13.70;;;18.40;99.90;;;;;;5037067;28;20025;-82
2023/10/03 03:35:25;;;;;;;28.65;13.65;;;18.40;99.90;;;;;;5017790;28;20108;-82
2023/10/03 03:37:57;;;;;;;30.15;12.85;;;18.40;99.90;;;;;;5016794;28;20060;-82
2023/10/03 03:40:36;;;;;;;28.75;13.20;;;18.40;99.90;;;;;;5017893;28;20025;-81
2023/10/03 03:43:03;;;;;;;29.13;13.05;;;18.40;99.90;;;;;;5034651;28;20037;-82
2023/10/03 03:45:30;;;;;;;29.08;12.75;;;18.40;99.90;;;;;;5019896;28;20029;-82
2023/10/03 03:47:55;;;;;;;30.85;13.32;;;18.50;99.90;;;;;;5018916;28;20017;-83
2023/10/03 03:50:22;;;;;;;28.27;11.82;;;18.40;99.90;;;;;;5020735;28;20525;-80
2023/10/03 03:52:49;;;;;;;27.08;12.57;;;18.50;99.90;;;;;;5018268;28;20074;-83
2023/10/03 03:55:17;;;;;;;32.72;12.75;;;18.40;99.90;;;;;;5018059;28;20478;-82
2023/10/03 03:57:45;;;;;;;28.60;12.00;;;18.50;99.90;;;;;;5036567;28;20026;-82
2023/10/03 04:00:14;;;;;;;25.08;11.82;;;18.50;99.90;;;;;;5018849;28;21688;-82
2023/10/03 04:02:40;;;;;;;25.13;12.10;;;18.50;99.90;;;;;;5032122;28;20083;-82
2023/10/03 04:05:10;;;;;;;27.83;12.60;;;18.60;99.90;;;;;;5039756;28;20029;-83
2023/10/03 04:07:38;;;;;;;27.95;11.35;;;18.60;99.90;;;;;;5018713;28;20531;-83
2023/10/03 04:10:09;;;;;;;30.88;13.05;;;18.60;99.90;;;;;;5036157;28;20030;-83
2023/10/03 04:12:41;;;;;;;28.98;12.30;;;18.60;99.90;;;;;;5034986;28;20026;-82
2023/10/03 04:15:15;;;;;;;22.75;11.98;;;18.60;99.90;;;;;;5020509;28;20033;-80
2023/10/03 04:17:44;;;;;;;25.35;11.30;;;18.60;99.90;;;;;;5018809;28;20022;-81
2023/10/03 04:20:25;;;;;;;27.40;12.02;;;18.60;99.90;;;;;;5033875;28;20022;-82
2023/10/03 04:22:52;;;;;;;24.50;10.43;;;18.60;99.90;;;;;;5035687;28;20026;-83
2023/10/03 04:25:19;;;;;;;24.10;11.20;;;18.60;99.90;;;;;;5020426;28;20021;-84
2023/10/03 04:27:49;;;;;;;25.75;11.13;;;18.60;99.90;;;;;;5036325;28;21734;-84
2023/10/03 04:30:16;;;;;;;23.63;11.20;;;18.60;99.90;;;;;;5035640;28;20029;-81
2023/10/03 04:32:47;;;;;;;25.25;11.27;;;18.60;99.90;;;;;;5017639;28;20025;-84
2023/10/03 04:35:13;;;;;;;24.00;10.63;;;18.50;99.90;;;;;;5018371;28;21541;-84
2023/10/03 04:37:42;;;;;;;25.80;11.52;;;18.50;99.90;;;;;;5036954;28;20026;-83
2023/10/03 04:40:22;;;;;;;25.60;11.30;;;18.50;99.90;;;;;;5035919;28;20481;-82
2023/10/03 04:42:57;;;;;;;27.10;11.82;;;18.50;99.90;;;;;;5035365;28;20025;-83
2023/10/03 04:45:26;;;;;;;26.90;12.60;;;18.50;99.90;;;;;;5031918;28;20029;-83
2023/10/03 04:47:52;;;;;;;24.95;11.30;;;18.40;99.90;;;;;;5020672;28;20025;-83
2023/10/03 04:50:19;;;;;;;25.35;11.65;;;18.40;99.90;;;;;;5018262;28;20437;-82
2023/10/03 04:52:48;;;;;;;23.65;10.95;;;18.40;99.90;;;;;;5034058;28;20357;-83
2023/10/03 04:55:18;;;;;;;23.55;11.18;;;18.40;99.90;;;;;;5034670;28;20023;-83
2023/10/03 04:57:45;;;;;;;27.17;11.93;;;18.40;99.90;;;;;;5017917;28;20445;-81
2023/10/03 05:00:12;;;;;;;25.05;11.07;;;18.30;99.90;;;;;;5032434;28;20140;-82
2023/10/03 05:02:37;;;;;;;24.27;10.88;;;18.30;99.90;;;;;;5017887;28;20029;-83
2023/10/03 05:05:03;;;;;;;28.83;12.60;;;18.30;99.90;;;;;;5032724;28;20083;-83
2023/10/03 05:07:29;;;;;;;25.83;11.98;;;18.30;99.90;;;;;;5018679;28;20511;-81
2023/10/03 05:09:55;;;;;;;23.02;10.98;;;18.30;99.90;;;;;;5035735;28;20522;-81
2023/10/03 05:12:26;;;;;;;26.13;10.57;;;18.30;99.90;;;;;;5018433;28;20048;-83
2023/10/03 05:14:54;;;;;;;25.38;10.88;;;18.20;99.90;;;;;;5034846;28;20022;-81
2023/10/03 05:17:19;;;;;;;25.65;11.88;;;18.30;99.90;;;;;;5036292;28;20021;-82
2023/10/03 05:19:45;;;;;;;22.25;10.75;;;18.20;99.90;;;;;;5017147;28;20037;-81
2023/10/03 05:22:11;;;;;;;26.88;11.57;;;18.20;99.90;;;;;;5019655;28;20029;-82
2023/10/03 05:24:39;;;;;;;24.20;11.35;;;18.20;99.90;;;;;;5016952;28;20026;-82
2023/10/03 05:27:06;;;;;;;24.70;11.57;;;18.20;99.90;;;;;;5037197;28;20022;-83
2023/10/03 05:29:32;;;;;;;22.15;10.55;;;18.20;99.90;;;;;;5016105;28;21668;-81
2023/10/03 05:32:00;;;;;;;24.67;11.25;;;18.30;99.90;;;;;;5035036;28;20033;-80
2023/10/03 05:34:28;;;;;;;22.42;9.70;;;18.30;99.90;;;;;;5032298;28;20032;-82
2023/10/03 05:36:53;;;;;;;20.30;6.85;;;18.30;99.90;;;;;;5020817;28;20033;-80
2023/10/03 05:39:19;;;;;;;21.15;8.10;;;18.40;99.90;;;;;;5034137;28;20021;-80
2023/10/03 05:41:45;;;;;;;23.35;8.45;;;18.80;99.90;;;;;;5015390;28;20037;-83
2023/10/03 05:44:13;;;;;;;23.25;8.43;;;19.00;99.90;;;;;;5033983;28;20043;-82
2023/10/03 05:46:42;;;;;;;22.42;7.53;;;19.20;99.90;;;;;;5035387;28;20036;-84
2023/10/03 05:49:10;;;;;;;21.83;8.20;;;19.50;99.90;;;;;;5017167;28;20469;-84
2023/10/03 05:51:36;;;;;;;15.90;6.95;;;19.60;99.90;;;;;;5016986;28;20033;-83
2023/10/03 05:54:04;;;;;;;21.48;8.45;;;19.80;99.90;;;;;;5016445;28;20091;-82
2023/10/03 05:56:30;;;;;;;18.35;8.65;;;19.80;99.90;;;;;;5017766;28;20025;-84
2023/10/03 05:58:56;;;;;;;14.52;7.15;;;19.90;99.90;;;;;;5015257;28;20079;-82
2023/10/03 06:01:21;;;;;;;21.27;7.70;;;19.90;99.90;;;;;;5015768;28;20037;-82
2023/10/03 06:03:47;;;;;;;19.77;7.90;;;20.00;99.90;;;;;;5035247;28;20453;-82
2023/10/03 06:06:14;;;;;;;17.42;8.35;;;19.90;99.90;;;;;;5016756;28;20038;-83
2023/10/03 06:08:42;;;;;;;18.85;8.55;;;20.00;99.90;;;;;;5016028;28;20057;-84
2023/10/03 06:11:08;;;;;;;22.98;8.85;;;20.00;99.90;;;;;;5017379;28;20021;-83
2023/10/03 06:13:33;;;;;;;18.45;7.22;;;20.10;99.90;;;;;;5034054;28;20353;-84
2023/10/03 06:16:00;;;;;;;18.33;6.90;;;20.10;99.90;;;;;;5017050;28;20029;-82
2023/10/03 06:18:28;;;;;;;20.33;8.63;;;20.20;99.90;;;;;;5014495;28;20095;-83
2023/10/03 06:20:56;;;;;;;17.40;7.68;;;20.20;99.90;;;;;;5013126;28;20025;-82
2023/10/03 06:23:24;;;;;;;16.75;7.10;;;20.30;99.90;;;;;;5015170;28;20520;-83
2023/10/03 06:25:51;;;;;;;16.00;6.70;;;20.30;99.90;;;;;;5034158;28;20029;-84
2023/10/03 06:28:16;;;;;;;15.35;7.32;;;20.30;99.90;;;;;;5018260;28;20347;-82
2023/10/03 06:30:44;;;;;;;17.15;7.63;;;20.40;99.90;;;;;;5021091;28;20109;-83
2023/10/03 06:33:12;;;;;;;15.75;7.38;;;20.40;99.90;;;;;;5016407;28;20025;-83
2023/10/03 06:35:37;;;;;;;18.65;7.20;;;20.50;99.90;;;;;;5034218;28;20061;-83
2023/10/03 06:38:03;;;;;;;15.52;6.75;;;20.50;99.90;;;;;;5031804;28;20052;-83
2023/10/03 06:40:29;;;;;;;16.88;7.00;;;20.50;99.90;;;;;;5015668;28;20033;-85
2023/10/03 06:42:54;;;;;;;19.55;7.05;;;20.50;99.90;;;;;;5016417;28;20033;-81
2023/10/03 06:45:21;;;;;;;17.45;7.45;;;20.50;99.90;;;;;;5016086;28;20022;-81
2023/10/03 06:47:46;;;;;;;17.52;7.00;;;20.50;99.90;;;;;;5018651;28;20052;-81
2023/10/03 06:50:17;;;;;;;17.38;7.13;;;20.50;99.90;;;;;;5017819;28;20450;-83
2023/10/03 06:52:43;;;;;;;15.45;6.68;;;20.50;99.90;;;;;;5033020;28;20076;-81
2023/10/03 06:55:15;;;;;;;17.13;7.95;;;20.50;99.90;;;;;;5016292;28;20057;-85
2023/10/03 06:57:43;;;;;;;19.35;6.88;;;20.50;99.90;;;;;;5011496;28;20021;-82
2023/10/03 07:00:14;;;;;;;20.70;7.80;;;20.50;99.90;;;;;;5029287;28;21836;-81
2023/10/03 07:02:42;;;;;;;13.43;5.87;;;20.50;99.90;;;;;;5014860;28;20170;-86
2023/10/03 07:05:11;;;;;;;21.60;6.97;;;20.60;99.90;;;;;;5031161;28;20025;-86
2023/10/03 07:07:39;;;;;;;14.73;6.30;;;20.60;99.90;;;;;;5030380;28;20025;-87
2023/10/03 07:10:09;;;;;;;13.45;5.88;;;20.50;99.90;;;;;;5031031;28;20115;-83
2023/10/03 07:12:34;;;;;;;12.93;5.32;;;20.50;99.90;;;;;;5030506;28;20036;-84
2023/10/03 07:15:00;;;;;;;11.25;5.03;;;20.50;99.90;;;;;;5030718;28;20030;-85
2023/10/03 07:17:26;;;;;;;11.25;5.22;;;20.50;99.90;;;;;;5029452;28;20079;-80
2023/10/03 07:19:51;;;;;;;13.35;4.60;;;20.40;99.90;;;;;;5029378;28;20127;-84
2023/10/03 07:22:20;;;;;;;10.23;4.55;;;20.30;99.90;;;;;;5014625;28;20476;-79
2023/10/03 07:24:51;;;;;;;9.85;4.40;;;20.30;99.90;;;;;;5015535;28;20139;-84
2023/10/03 07:27:19;;;;;;;8.43;4.18;;;20.20;99.90;;;;;;5014115;28;20038;-83
2023/10/03 07:29:49;;;;;;;11.52;4.70;;;20.20;99.90;;;;;;5012658;28;20040;-81
2023/10/03 07:32:15;;;;;;;9.85;4.03;;;20.20;99.90;;;;;;5009278;28;20022;-81
2023/10/03 07:34:45;;;;;;;9.23;3.58;;;20.10;99.90;;;;;;5023761;28;20442;-78
2023/10/03 07:37:14;;;;;;;16.17;4.00;;;20.10;99.90;;;;;;5029850;28;20099;-82
2023/10/03 07:39:40;;;;;;;11.68;4.75;;;20.10;99.90;;;;;;5026507;28;20112;-84
2023/10/03 07:42:05;;;;;;;7.20;3.20;;;20.00;99.90;;;;;;5014468;28;20116;-84
2023/10/03 07:44:35;;;;;;;9.15;4.28;;;20.00;99.90;;;;;;5012853;28;20120;-83
2023/10/03 07:47:03;;;;;;;10.80;4.40;;;20.00;99.90;;;;;;5012239;28;20025;-81
2023/10/03 07:49:31;;;;;;;6.68;3.67;;;20.00;99.90;;;;;;5029687;28;20033;-83
2023/10/03 07:51:59;;;;;;;9.68;3.85;;;20.00;99.90;;;;;;5029763;28;20029;-85
2023/10/03 07:54:32;;;;;;;10.43;4.15;;;20.00;99.90;;;;;;5031628;28;20075;-85
2023/10/03 07:56:58;;;;;;;7.97;3.40;;;20.00;99.90;;;;;;5035648;28;20030;-84
2023/10/03 07:59:25;;;;;;;11.70;4.03;;;20.00;99.90;;;;;;5017820;28;20047;-85
2023/10/03 08:01:51;;;;;;;13.68;4.63;;;20.00;99.90;;;;;;5017954;28;20095;-80
2023/10/03 08:04:18;;;;;;;8.65;4.18;;;20.00;99.90;;;;;;5035332;28;21644;-85
2023/10/03 08:06:46;;;;;;;11.43;4.22;;;20.00;99.90;;;;;;5017419;28;20068;-83
2023/10/03 08:09:13;;;;;;;10.27;4.18;;;20.00;99.90;;;;;;5016215;28;20116;-85
2023/10/03 08:11:39;;;;;;;14.00;3.40;;;20.00;99.90;;;;;;5033244;28;20087;-90
2023/10/03 08:14:13;;;;;;;10.43;4.13;;;20.00;99.90;;;;;;5010879;28;20025;-87
2023/10/03 08:16:44;;;;;;;9.23;4.75;;;20.10;99.90;;;;;;5032841;28;20164;-87
2023/10/03 08:19:21;;;;;;;7.18;3.60;;;20.10;99.90;;;;;;5034684;28;20057;-87
2023/10/03 08:21:52;;;;;;;11.18;3.63;;;20.20;99.90;;;;;;5015814;28;20971;-83
2023/10/03 08:24:24;;;;;;;8.07;3.90;;;20.20;99.90;;;;;;5028293;28;20059;-88
2023/10/03 08:26:58;;;;;;;12.13;4.32;;;20.30;99.90;;;;;;5014826;28;20032;-83
2023/10/03 08:29:24;;;;;;;6.50;3.47;;;20.40;99.90;;;;;;5015728;28;20025;-86
2023/10/03 08:31:57;;;;;;;11.30;4.05;;;20.50;99.90;;;;;;5031919;28;20076;-83
2023/10/03 08:34:25;;;;;;;11.50;4.30;;;20.60;99.90;;;;;;5016018;28;20420;-83
2023/10/03 08:36:58;;;;;;;14.27;3.22;;;20.60;99.90;;;;;;5014274;28;20036;-87
2023/10/03 08:39:32;;;;;;;8.30;3.10;;;20.60;99.90;;;;;;5014844;28;20032;-87
2023/10/03 08:42:15;;;;;;;7.22;3.10;;;20.60;99.90;;;;;;5030467;28;20099;-87
2023/10/03 08:44:54;;;;;;;8.70;3.90;;;20.60;99.90;;;;;;5002879;28;20816;-88
2023/10/03 08:47:49;;;;;;;5.78;2.85;;;20.60;99.90;;;;;;5018283;28;20135;-91
2023/10/03 08:50:29;;;;;;;12.30;4.70;;;20.60;99.90;;;;;;5023947;28;20037;-85
2023/10/03 08:53:12;;;;;;;6.68;2.78;;;20.60;99.90;;;;;;5026849;28;20018;-84
2023/10/03 08:55:39;;;;;;;7.05;2.92;;;20.50;99.90;;;;;;5011231;28;20025;-87
2023/10/03 08:58:08;;;;;;;5.05;2.47;;;20.50;99.90;;;;;;5013175;28;20075;-85
2023/10/03 09:00:40;;;;;;;5.47;3.10;;;20.60;99.90;;;;;;5019422;28;20022;-80
2023/10/03 09:03:11;;;;;;;9.30;3.22;;;20.40;99.90;;;;;;5027622;28;20041;-82
2023/10/03 09:05:43;;;;;;;7.70;2.80;;;20.20;99.90;;;;;;5025596;28;20025;-76
2023/10/03 09:08:09;;;;;;;;;;;20.10;99.90;;;;;;5026699;28;20033;-76
2023/10/03 09:10:55;;;;;;;4.47;2.58;;;20.10;99.90;;;;;;5008434;28;19928;-78
2023/10/03 09:13:23;;;;;;;7.38;3.80;;;20.10;99.90;;;;;;5021396;28;20022;-78
2023/10/03 09:15:59;;;;;;;5.55;2.78;;;20.10;99.90;;;;;;5032644;28;20029;-78
2023/10/03 09:18:26;;;;;;;6.75;3.42;;;20.10;99.90;;;;;;5029468;28;20064;-77
2023/10/03 09:20:59;;;;;;;5.95;2.35;;;20.10;99.90;;;;;;5029363;28;20061;-79
2023/10/03 09:23:27;;;;;;;3.88;2.35;;;20.20;99.90;;;;;;5026925;28;20125;-79
2023/10/03 09:25:56;;;;;;;5.55;2.22;;;20.10;99.90;;;;;;5013632;28;20048;-78
2023/10/03 09:28:35;;;;;;;8.48;2.08;;;20.10;99.90;;;;;;5030744;28;20032;-78
2023/10/03 09:31:08;;;;;;;6.00;2.65;;;20.10;99.90;;;;;;5014749;28;21657;-78
2023/10/03 09:33:39;;;;;;;9.43;2.67;;;20.10;99.90;;;;;;5014166;28;20596;-78
2023/10/03 09:36:07;;;;;;;8.23;2.30;;;20.20;99.90;;;;;;5012889;28;20083;-78
2023/10/03 09:38:49;;;;;;;4.78;2.47;;;20.20;99.90;;;;;;5031582;28;20029;-78
2023/10/03 09:41:17;;;;;;;6.17;2.37;;;20.20;99.90;;;;;;5012117;28;20052;-77
2023/10/03 09:43:49;;;;;;;5.88;2.08;;;20.20;99.90;;;;;;5013299;28;20176;-78
2023/10/03 09:46:23;;;;;;;11.10;2.60;;;20.20;99.90;;;;;;5012927;28;20039;-77
2023/10/03 09:48:56;;;;;;;6.30;2.38;;;20.30;99.90;;;;;;5012080;28;20035;-78
2023/10/03 09:54:30;;;;;;;7.45;2.70;;;20.30;99.90;;;;;;5014508;28;20349;-78
2023/10/03 09:56:57;;;;;;;7.50;3.00;;;20.20;99.90;;;;;;5012108;28;20025;-78
2023/10/03 09:59:26;;;;;;;5.93;3.13;;;19.80;99.90;;;;;;5029751;28;20295;-77
2023/10/03 10:01:59;;;;;;;9.75;4.18;;;19.50;99.90;;;;;;5028936;28;20047;-79
2023/10/03 10:04:30;;;;;;;6.55;3.47;;;19.30;99.90;;;;;;5030989;28;20032;-77
2023/10/03 10:07:16;;;;;;;8.15;2.88;;;19.10;99.90;;;;;;5031596;28;20028;-78
2023/10/03 10:09:54;;;;;;;11.68;3.95;;;19.00;99.90;;;;;;5028391;28;20905;-78
2023/10/03 10:12:21;;;;;;;6.72;3.50;;;18.90;99.90;;;;;;5012534;28;20028;-79
2023/10/03 10:15:00;;;;;;;6.45;3.40;;;18.90;99.90;;;;;;5030962;28;20023;-78
2023/10/03 10:17:45;;;;;;;8.30;3.20;;;19.00;99.90;;;;;;5028914;28;20047;-78
2023/10/03 10:20:27;;;;;;;5.88;3.03;;;19.00;99.90;;;;;;5029574;28;20038;-79
2023/10/03 10:22:59;;;;;;;4.88;2.58;;;19.10;99.90;;;;;;5011940;28;20029;-78
2023/10/03 10:25:28;;;;;;;7.50;3.17;;;19.20;99.90;;;;;;5013311;28;20084;-79
2023/10/03 10:28:09;;;;;;;7.93;2.97;;;19.30;99.90;;;;;;5028557;28;20116;-77
2023/10/03 10:30:39;;;;;;;10.53;3.57;;;19.30;99.90;;;;;;5007321;28;20021;-78
2023/10/03 10:33:17;;;;;;;10.60;3.72;;;19.40;99.90;;;;;;5012202;28;20143;-77
2023/10/03 10:35:59;;;;;;;10.88;3.70;;;19.40;99.90;;;;;;5012664;28;20407;-76
2023/10/03 10:38:31;;;;;;;7.10;3.10;;;19.40;99.90;;;;;;5028276;28;20350;-78
2023/10/03 10:41:21;;;;;;;7.78;3.10;;;19.30;99.90;;;;;;5013047;28;20041;-79
2023/10/03 10:44:13;;;;;;;7.07;3.55;;;19.20;99.90;;;;;;5024040;28;20036;-78
2023/10/03 10:46:45;;;;;;;8.88;3.92;;;19.00;99.90;;;;;;5012912;28;20029;-79
2023/10/03 10:49:40;;;;;;;8.88;3.90;;;18.90;99.90;;;;;;5011012;28;20386;-78
2023/10/03 10:52:07;;;;;;;7.30;3.20;;;18.90;99.90;;;;;;5028282;28;20022;-77
2023/10/03 10:54:36;;;;;;;6.78;4.07;;;18.80;99.90;;;;;;5013188;28;20018;-77
2023/10/03 10:57:10;;;;;;;7.35;3.72;;;18.80;99.90;;;;;;5012099;28;20029;-78
2023/10/03 10:59:40;;;;;;;7.53;3.42;;;18.90;99.90;;;;;;5010104;28;20104;-78
2023/10/03 11:02:18;;;;;;;10.13;3.67;;;19.00;99.90;;;;;;5011337;28;20041;-76
2023/10/03 11:04:44;;;;;;;10.48;4.07;;;19.00;99.90;;;;;;5011698;28;20038;-77
2023/10/03 11:07:18;;;;;;;8.32;3.83;;;19.00;99.90;;;;;;5008576;28;20036;-78
2023/10/03 11:09:44;;;;;;;6.32;3.58;;;19.00;99.90;;;;;;5030421;28;20059;-79
2023/10/03 11:12:09;;;;;;;4.88;3.10;;;18.60;99.90;;;;;;5012137;28;20894;-78
2023/10/03 11:14:35;;;;;;;7.82;3.63;;;18.20;99.90;;;;;;5012923;28;20048;-78
2023/10/03 11:17:02;;;;;;;4.25;3.03;;;17.70;99.90;;;;;;5013204;28;20047;-78
2023/10/03 11:19:31;;;;;;;5.30;2.95;;;17.50;99.90;;;;;;5030027;28;20036;-78
2023/10/03 11:21:57;;;;;;;7.57;3.63;;;17.40;99.90;;;;;;5029813;28;20030;-78
2023/10/03 11:24:24;;;;;;;12.48;4.25;;;17.20;99.90;;;;;;5030952;28;20081;-78
2023/10/03 11:26:59;;;;;;;8.60;4.80;;;17.10;99.90;;;;;;5011853;28;20025;-78
2023/10/03 11:29:55;;;;;;;11.23;4.57;;;16.90;99.90;;;;;;5033692;28;20030;-77
2023/10/03 11:32:35;;;;;;;15.13;5.82;;;16.70;99.90;;;;;;5008025;28;20045;-78
2023/10/03 11:35:18;;;;;;;16.98;6.32;;;16.60;99.90;;;;;;5015760;28;20033;-78
2023/10/03 11:37:45;;;;;;;13.57;7.65;;;16.50;99.90;;;;;;5014622;28;20025;-78
2023/10/03 11:40:22;;;;;;;14.77;8.02;;;16.50;99.90;;;;;;5034646;28;20158;-79
2023/10/03 11:42:51;;;;;;;15.57;7.97;;;16.40;99.90;;;;;;5032023;28;20021;-79
2023/10/03 11:45:28;;;;;;;15.73;8.82;;;16.40;99.90;;;;;;5035423;28;20029;-79
2023/10/03 11:48:19;;;;;;;17.98;10.15;;;16.40;99.90;;;;;;5036700;28;20029;-79
2023/10/03 11:50:49;;;;;;;18.67;10.52;;;16.40;99.90;;;;;;5019899;28;20033;-79
2023/10/03 11:53:18;;;;;;;16.23;10.82;;;16.40;99.90;;;;;;5033996;28;20022;-79
2023/10/03 11:55:44;;;;;;;25.27;12.05;;;16.40;99.90;;;;;;5035067;28;20152;-78
2023/10/03 11:58:12;;;;;;;20.70;11.05;;;16.40;99.90;;;;;;5019421;28;20211;-78
2023/10/03 12:00:43;;;;;;;23.73;11.68;;;16.50;99.90;;;;;;5017616;28;20025;-77
2023/10/03 12:03:09;;;;;;;21.67;11.60;;;16.40;99.90;;;;;;5022742;28;20048;-80
2023/10/03 12:05:36;;;;;;;24.42;12.90;;;16.40;99.90;;;;;;5026439;28;20021;-78
2023/10/03 12:08:05;;;;;;;22.23;12.40;;;16.40;99.90;;;;;;5032384;28;20047;-78
2023/10/03 12:10:31;;;;;;;30.88;13.82;;;16.40;99.90;;;;;;5031423;28;20084;-80
2023/10/03 12:13:01;;;;;;;27.08;13.73;;;16.40;99.90;;;;;;5024474;28;20021;-79
2023/10/03 12:15:27;;;;;;;56.63;16.58;;;16.30;99.90;;;;;;5016855;28;20029;-78
2023/10/03 12:17:56;;;;;;;38.97;15.07;;;16.40;99.90;;;;;;5017793;28;20036;-78
2023/10/03 12:20:22;;;;;;;30.08;15.88;;;16.40;99.90;;;;;;5017857;28;20032;-79
2023/10/03 12:22:50;;;;;;;36.92;16.52;;;16.30;99.90;;;;;;5035173;28;20087;-78
2023/10/03 12:25:17;;;;;;;32.45;16.52;;;16.30;99.90;;;;;;5034851;28;20028;-79
2023/10/03 12:27:44;;;;;;;28.92;16.02;;;16.40;99.90;;;;;;5018061;28;20025;-79
2023/10/03 12:30:15;;;;;;;29.65;13.07;;;16.40;99.90;;;;;;5021482;28;20116;-79
2023/10/03 12:32:45;;;;;;;15.68;6.95;;;16.30;99.90;;;;;;5016615;28;20041;-79
2023/10/03 12:35:13;;;;;;;12.38;5.40;;;16.20;99.90;;;;;;5036225;28;20021;-79
2023/10/03 12:37:40;;;;;;;9.07;3.80;;;16.10;99.90;;;;;;5035780;28;20053;-79
2023/10/03 12:40:14;;;;;;;8.48;2.67;;;16.00;99.90;;;;;;5016389;28;20037;-79
2023/10/03 12:42:58;;;;;;;5.18;2.08;;;16.00;99.90;;;;;;5018270;28;20079;-79
2023/10/03 12:45:26;;;;;;;3.80;1.60;;;15.80;99.90;;;;;;5033998;28;20045;-79
2023/10/03 12:47:54;;;;;;;6.90;1.80;;;15.70;99.90;;;;;;5019524;28;20466;-77
2023/10/03 12:50:27;;;;;;;3.45;1.50;;;15.70;99.90;;;;;;5042701;28;20160;-80
2023/10/03 12:53:01;;;;;;;3.95;1.40;;;15.70;99.90;;;;;;5019437;28;20175;-79
2023/10/03 12:55:29;;;;;;;12.38;2.33;;;15.70;99.90;;;;;;5036898;28;20028;-79
2023/10/03 12:57:58;;;;;;;9.88;2.92;;;15.80;99.90;;;;;;5021115;28;20026;-79